createdAt,value
2018-10-21T00:00:45.537Z,99.90
2018-10-21T00:03:13.648Z,99.90
2018-10-21T00:05:41.661Z,99.90
2018-10-21T00:08:09.738Z,99.90
2018-10-21T00:10:38.095Z,99.90
2018-10-21T00:13:06.161Z,99.90
2018-10-21T00:15:34.381Z,99.90
2018-10-21T00:18:02.313Z,99.90
2018-10-21T00:20:30.456Z,99.90
2018-10-21T00:22:58.522Z,99.90
2018-10-21T00:25:26.609Z,99.90
2018-10-21T00:27:54.698Z,99.90
2018-10-21T00:30:22.763Z,99.90
2018-10-21T00:32:51.961Z,99.90
2018-10-21T00:35:20.052Z,99.90
2018-10-21T00:37:48.138Z,99.90
2018-10-21T00:40:16.265Z,99.90
2018-10-21T00:42:44.325Z,99.90
2018-10-21T00:45:12.501Z,99.90
2018-10-21T00:47:40.469Z,99.90
2018-10-21T00:50:09.638Z,99.90
2018-10-21T00:52:37.695Z,99.90
2018-10-21T00:55:06.371Z,99.90
2018-10-21T00:57:34.430Z,99.90
2018-10-21T01:00:02.542Z,99.90
2018-10-21T01:02:30.594Z,99.90
2018-10-21T01:04:59.858Z,99.90
2018-10-21T01:07:27.907Z,99.90
2018-10-21T01:09:56.010Z,99.90
2018-10-21T01:12:24.055Z,99.90
2018-10-21T01:14:52.115Z,99.90
2018-10-21T01:17:20.155Z,99.90
2018-10-21T01:19:48.222Z,99.90
2018-10-21T01:22:16.312Z,99.90
2018-10-21T01:24:44.429Z,99.90
2018-10-21T01:27:12.526Z,99.90
2018-10-21T01:29:44.954Z,99.90
2018-10-21T01:32:13.446Z,99.90
2018-10-21T01:34:41.510Z,99.90
2018-10-21T01:37:09.622Z,99.90
2018-10-21T01:40:50.012Z,99.90
2018-10-21T01:43:20.723Z,99.90
2018-10-21T01:45:48.823Z,99.90
2018-10-21T01:48:18.203Z,99.90
2018-10-21T01:50:46.393Z,99.90
2018-10-21T01:53:15.675Z,99.90
2018-10-21T01:55:43.766Z,99.90
2018-10-21T01:58:11.853Z,99.90
2018-10-21T02:00:40.530Z,99.90
2018-10-21T02:03:08.675Z,99.90
2018-10-21T02:05:37.187Z,99.90
2018-10-21T02:08:05.463Z,99.90
2018-10-21T02:10:33.627Z,99.90
2018-10-21T02:13:01.831Z,99.90
2018-10-21T02:15:29.930Z,99.90
2018-10-21T02:17:58.050Z,99.90
2018-10-21T02:20:26.412Z,99.90
2018-10-21T02:22:54.487Z,99.90
2018-10-21T02:25:22.573Z,99.90
2018-10-21T02:27:52.262Z,99.90
2018-10-21T02:30:22.495Z,99.90
2018-10-21T02:32:51.233Z,99.90
2018-10-21T02:35:19.880Z,99.90
2018-10-21T02:37:48.349Z,99.90
2018-10-21T02:42:23.191Z,99.90
2018-10-21T02:44:51.271Z,99.90
2018-10-21T02:47:19.351Z,99.90
2018-10-21T02:49:47.439Z,99.90
2018-10-21T02:52:15.589Z,99.90
2018-10-21T02:54:44.387Z,99.90
2018-10-21T02:57:13.590Z,99.90
2018-10-21T02:59:41.713Z,99.90
2018-10-21T03:02:09.841Z,99.90
2018-10-21T03:04:38.567Z,99.90
2018-10-21T03:07:06.685Z,99.90
2018-10-21T03:09:34.795Z,99.90
2018-10-21T03:12:02.904Z,99.90
2018-10-21T03:14:31.002Z,99.90
2018-10-21T03:16:59.138Z,99.90
2018-10-21T03:19:27.253Z,99.90
2018-10-21T03:21:55.378Z,99.90
2018-10-21T06:46:57.516Z,99.90
2018-10-21T06:49:25.740Z,99.90
2018-10-21T06:51:53.897Z,99.90
2018-10-21T06:54:22.026Z,99.90
2018-10-21T06:56:50.263Z,99.90
2018-10-21T06:59:18.289Z,99.90
2018-10-21T07:01:47.291Z,99.90
2018-10-21T07:04:16.545Z,99.90
2018-10-21T07:06:44.621Z,99.90
2018-10-21T07:09:12.783Z,99.90
2018-10-21T07:11:40.865Z,99.90
2018-10-21T07:14:08.953Z,99.90
2018-10-21T07:16:37.138Z,99.90
2018-10-21T07:19:05.290Z,99.90
2018-10-21T07:21:33.476Z,99.90
2018-10-21T07:24:01.698Z,99.90
2018-10-21T07:26:29.849Z,99.90
2018-10-21T07:28:58.008Z,99.90
2018-10-21T07:31:26.126Z,99.90
2018-10-21T07:33:54.298Z,99.90
2018-10-21T07:36:22.468Z,99.90
2018-10-21T07:38:50.524Z,99.90
2018-10-21T07:41:18.671Z,99.90
2018-10-21T07:43:46.811Z,99.90
2018-10-21T07:46:15.033Z,99.90
2018-10-21T07:48:43.073Z,99.90
2018-10-21T07:51:11.179Z,99.90
2018-10-21T07:53:41.297Z,99.90
2018-10-21T07:56:09.414Z,99.90
2018-10-21T07:58:37.548Z,99.90
2018-10-21T08:01:05.806Z,99.90
2018-10-21T08:03:34.001Z,99.90
2018-10-21T08:06:24.761Z,99.90
2018-10-21T08:08:52.915Z,99.90
2018-10-21T08:11:21.035Z,99.90
2018-10-21T08:13:49.160Z,99.90
2018-10-21T08:16:17.306Z,99.90
2018-10-21T08:18:45.429Z,99.90
2018-10-21T08:21:13.593Z,99.90
2018-10-21T08:23:41.689Z,99.90
2018-10-21T08:26:09.804Z,99.90
2018-10-21T08:28:37.892Z,99.90
2018-10-21T08:31:06.019Z,99.90
2018-10-21T08:33:34.138Z,99.90
2018-10-21T08:36:02.263Z,99.90
2018-10-21T08:38:30.379Z,99.90
2018-10-21T08:40:58.493Z,99.90
2018-10-21T08:43:26.596Z,99.90
2018-10-21T08:45:54.690Z,99.90
2018-10-21T08:48:23.013Z,99.90
2018-10-21T08:50:51.125Z,99.90
2018-10-21T08:53:19.244Z,99.90
2018-10-21T08:55:47.357Z,99.90
2018-10-21T08:58:15.525Z,99.90
2018-10-21T09:00:43.563Z,99.90
2018-10-21T09:03:11.622Z,99.90
2018-10-21T09:05:39.759Z,99.90
2018-10-21T09:08:07.841Z,99.90
2018-10-21T09:10:35.995Z,99.90
2018-10-21T09:13:04.123Z,99.90
2018-10-21T09:15:32.269Z,99.90
2018-10-21T09:18:00.296Z,99.90
2018-10-21T09:20:28.396Z,99.90
2018-10-21T09:22:56.511Z,99.90
2018-10-21T09:25:24.627Z,99.60
2018-10-21T09:27:52.714Z,98.50
2018-10-21T09:30:20.793Z,98.10
2018-10-21T09:32:48.992Z,98.10
2018-10-21T09:35:18.120Z,97.60
2018-10-21T09:37:46.576Z,95.90
2018-10-21T09:40:16.002Z,96.80
2018-10-21T09:42:44.377Z,97.20
2018-10-21T09:45:13.908Z,98.00
2018-10-21T09:47:42.261Z,96.90
2018-10-21T09:50:10.491Z,96.50
2018-10-21T09:52:38.610Z,95.80
2018-10-21T09:55:11.555Z,96.40
2018-10-21T09:57:39.738Z,96.60
2018-10-21T10:00:07.844Z,97.00
2018-10-21T10:02:41.282Z,96.50
2018-10-21T10:05:09.461Z,93.50
2018-10-21T10:07:37.531Z,91.30
2018-10-21T10:10:07.490Z,92.90
2018-10-21T10:12:35.589Z,92.20
2018-10-21T10:15:04.674Z,92.20
2018-10-21T10:17:32.904Z,92.40
2018-10-21T10:20:01.043Z,92.20
2018-10-21T10:22:29.152Z,90.40
2018-10-21T10:24:58.172Z,90.80
2018-10-21T10:27:26.235Z,87.40
2018-10-21T10:29:54.322Z,84.40
2018-10-21T10:35:15.840Z,86.80
2018-10-21T10:37:43.965Z,88.20
2018-10-21T10:40:13.046Z,87.80
2018-10-21T10:42:41.229Z,88.80
2018-10-21T10:45:09.338Z,82.40
2018-10-21T10:47:37.933Z,78.80
2018-10-21T10:50:07.205Z,76.70
2018-10-21T10:52:35.318Z,79.90
2018-10-21T10:55:03.491Z,80.00
2018-10-21T10:57:31.611Z,78.10
2018-10-21T10:59:59.817Z,79.00
2018-10-21T11:02:27.878Z,75.90
2018-10-21T11:04:57.004Z,75.80
2018-10-21T11:07:25.086Z,74.10
2018-10-21T11:09:53.200Z,72.80
2018-10-21T11:12:21.473Z,74.20
2018-10-21T11:14:49.641Z,73.60
2018-10-21T11:17:17.748Z,71.80
2018-10-21T11:19:45.829Z,72.20
2018-10-21T11:22:13.938Z,71.60
2018-10-21T11:24:46.902Z,72.40
2018-10-21T11:27:15.609Z,71.30
2018-10-21T11:29:43.796Z,71.60
2018-10-21T11:32:11.885Z,71.00
2018-10-21T11:34:40.051Z,72.00
2018-10-21T11:37:08.590Z,73.00
2018-10-21T11:39:36.671Z,71.00
2018-10-21T11:42:05.170Z,66.80
2018-10-21T11:44:33.257Z,66.40
2018-10-21T11:47:01.406Z,63.10
2018-10-21T11:49:29.529Z,63.00
2018-10-21T11:51:57.640Z,65.40
2018-10-21T11:54:25.713Z,65.10
2018-10-21T11:56:53.810Z,63.90
2018-10-21T11:59:21.946Z,65.40
2018-10-21T12:01:50.085Z,62.10
2018-10-21T12:04:18.214Z,59.80
2018-10-21T12:06:46.593Z,56.90
2018-10-21T12:09:14.728Z,54.90
2018-10-21T12:11:42.833Z,56.80
2018-10-21T12:14:11.252Z,56.20
2018-10-21T12:16:39.458Z,54.50
2018-10-21T12:19:08.615Z,55.10
2018-10-21T12:21:36.805Z,57.30
2018-10-21T12:24:05.210Z,56.70
2018-10-21T12:26:33.371Z,56.30
2018-10-21T12:29:01.553Z,54.70
2018-10-21T12:31:29.706Z,54.50
2018-10-21T12:33:57.851Z,56.00
2018-10-21T12:36:25.918Z,54.40
2018-10-21T12:38:54.085Z,53.00
2018-10-21T12:41:22.222Z,52.20
2018-10-21T12:43:50.354Z,52.20
2018-10-21T12:46:18.447Z,52.30
2018-10-21T12:48:46.603Z,53.20
2018-10-21T12:51:14.679Z,52.00
2018-10-21T12:53:42.769Z,54.30
2018-10-21T12:56:10.862Z,54.60
2018-10-21T12:58:40.320Z,54.10
2018-10-21T13:01:08.823Z,52.10
2018-10-21T13:03:36.937Z,50.80
2018-10-21T13:06:05.106Z,51.20
2018-10-21T13:08:33.210Z,48.90
2018-10-21T13:11:01.300Z,47.40
2018-10-21T13:13:29.462Z,46.70
2018-10-21T13:15:57.499Z,47.40
2018-10-21T13:18:25.606Z,48.20
2018-10-21T13:20:53.734Z,48.70
2018-10-21T13:23:21.840Z,48.10
2018-10-21T13:25:49.961Z,47.60
2018-10-21T13:28:18.095Z,49.10
2018-10-21T13:30:46.195Z,49.60
2018-10-21T13:33:14.327Z,49.60
2018-10-21T13:35:42.425Z,48.30
2018-10-21T13:38:10.689Z,48.20
2018-10-21T13:40:38.909Z,49.50
2018-10-21T13:43:07.215Z,50.00
2018-10-21T13:45:35.255Z,49.10
2018-10-21T13:48:03.407Z,50.60
2018-10-21T13:50:31.490Z,50.50
2018-10-21T13:52:59.638Z,50.10
2018-10-21T13:55:27.707Z,50.10
2018-10-21T13:57:55.793Z,52.80
2018-10-21T14:00:23.927Z,53.30
2018-10-21T14:02:52.053Z,52.80
2018-10-21T14:05:20.170Z,53.40
2018-10-21T14:07:48.268Z,53.60
2018-10-21T14:10:16.464Z,53.00
2018-10-21T14:12:44.504Z,53.70
2018-10-21T14:15:12.705Z,55.20
2018-10-21T14:17:40.806Z,54.80
2018-10-21T14:20:10.014Z,55.00
2018-10-21T14:22:38.233Z,54.10
2018-10-21T14:25:06.560Z,54.00
2018-10-21T14:27:34.609Z,53.70
2018-10-21T14:30:02.934Z,55.00
2018-10-21T14:32:31.036Z,57.10
2018-10-21T14:34:59.161Z,61.70
2018-10-21T14:37:27.272Z,60.50
2018-10-21T14:39:55.410Z,64.20
2018-10-21T14:42:23.452Z,70.50
2018-10-21T14:44:51.562Z,74.50
2018-10-21T14:47:19.654Z,79.20
2018-10-21T14:49:47.812Z,82.90
2018-10-21T14:52:15.875Z,87.40
2018-10-21T14:54:44.000Z,91.80
